createdAt,value
2022-08-01T00:00:55.447Z,99.99
2022-08-01T00:01:55.503Z,99.99
2022-08-01T00:02:55.505Z,99.99
2022-08-01T00:03:55.440Z,99.99
2022-08-01T00:04:55.423Z,99.99
2022-08-01T00:05:55.450Z,99.99
2022-08-01T00:06:55.404Z,99.99
2022-08-01T00:07:55.404Z,99.99
2022-08-01T00:08:55.400Z,99.99
2022-08-01T00:09:55.400Z,99.99
2022-08-01T00:10:55.395Z,99.99
2022-08-01T00:11:57.895Z,99.99
2022-08-01T00:12:55.377Z,99.99
2022-08-01T00:13:55.363Z,99.99
2022-08-01T00:14:55.363Z,99.99
2022-08-01T00:15:55.355Z,99.99
2022-08-01T00:16:55.356Z,99.99
2022-08-01T00:17:55.343Z,99.99
2022-08-01T00:18:55.336Z,99.86
2022-08-01T00:19:55.329Z,99.99
2022-08-01T00:20:55.330Z,99.99
2022-08-01T00:21:55.338Z,99.99
2022-08-01T00:22:55.316Z,99.55
2022-08-01T00:23:55.311Z,99.46
2022-08-01T00:24:55.299Z,99.55
2022-08-01T00:25:55.292Z,99.55
2022-08-01T00:26:55.303Z,99.99
2022-08-01T00:27:55.282Z,99.76
2022-08-01T00:28:55.272Z,99.86
2022-08-01T00:30:10.879Z,99.86
2022-08-01T00:30:56.257Z,99.86
2022-08-01T00:31:55.268Z,99.66
2022-08-01T00:32:55.243Z,99.86
2022-08-01T00:33:55.247Z,99.66
2022-08-01T00:34:55.234Z,99.99
2022-08-01T00:35:55.230Z,99.99
2022-08-01T00:36:55.237Z,99.99
2022-08-01T00:37:55.217Z,99.99
2022-08-01T00:38:55.214Z,99.99
2022-08-01T00:39:55.206Z,99.99
2022-08-01T00:40:55.202Z,99.99
2022-08-01T00:41:59.433Z,99.99
2022-08-01T00:42:55.193Z,99.99
2022-08-01T00:43:55.182Z,99.99
2022-08-01T00:44:55.177Z,99.99
2022-08-01T00:45:55.161Z,99.99
2022-08-01T00:46:55.164Z,99.99
2022-08-01T00:47:55.522Z,99.99
2022-08-01T00:48:55.160Z,99.99
2022-08-01T00:49:55.132Z,99.99
2022-08-01T00:50:55.117Z,99.99
2022-08-01T00:51:55.125Z,99.99
2022-08-01T00:52:55.133Z,99.99
2022-08-01T00:53:55.111Z,99.99
2022-08-01T00:54:55.089Z,99.99
2022-08-01T00:55:55.102Z,99.99
2022-08-01T00:56:55.093Z,99.99
2022-08-01T00:58:02.491Z,99.99
2022-08-01T00:58:57.096Z,99.99
2022-08-01T00:59:55.065Z,99.99
2022-08-01T01:00:55.090Z,99.99
2022-08-01T01:01:55.213Z,99.99
2022-08-01T01:02:55.057Z,99.99
2022-08-01T01:03:59.697Z,99.99
2022-08-01T01:04:57.041Z,99.99
2022-08-01T01:05:55.020Z,99.99
2022-08-01T01:06:56.028Z,99.99
2022-08-01T01:07:55.042Z,99.91
2022-08-01T01:08:55.005Z,99.81
2022-08-01T01:09:55.011Z,99.41
2022-08-01T01:10:54.993Z,98.16
2022-08-01T01:11:54.992Z,97.85
2022-08-01T01:12:54.992Z,97.70
2022-08-01T01:13:54.976Z,97.75
2022-08-01T01:14:54.972Z,97.90
2022-08-01T01:15:54.967Z,97.35
2022-08-01T01:16:54.956Z,97.45
2022-08-01T01:17:54.948Z,97.55
2022-08-01T01:18:54.949Z,97.35
2022-08-01T01:19:54.937Z,97.66
2022-08-01T01:20:54.929Z,97.35
2022-08-01T01:21:54.924Z,97.25
2022-08-01T01:22:54.915Z,97.05
2022-08-01T01:23:54.920Z,97.45
2022-08-01T01:24:54.908Z,97.55
2022-08-01T01:25:54.900Z,97.05
2022-08-01T01:26:54.888Z,97.61
2022-08-01T01:27:54.885Z,97.15
2022-08-01T01:28:54.895Z,96.55
2022-08-01T01:29:59.693Z,96.41
2022-08-01T01:30:55.864Z,96.41
2022-08-01T01:31:54.870Z,96.50
2022-08-01T01:32:55.579Z,96.00
2022-08-01T01:33:54.871Z,95.80
2022-08-01T01:34:54.848Z,95.95
2022-08-01T01:35:54.857Z,95.65
2022-08-01T01:36:54.834Z,96.06
2022-08-01T01:37:54.828Z,96.00
2022-08-01T01:38:54.859Z,95.95
2022-08-01T01:39:54.814Z,95.65
2022-08-01T01:40:54.806Z,95.90
2022-08-01T01:41:54.799Z,96.20
2022-08-01T01:42:54.795Z,97.55
2022-08-01T01:43:54.818Z,97.35
2022-08-01T01:44:54.782Z,97.41
2022-08-01T01:45:54.778Z,97.35
2022-08-01T01:46:54.770Z,97.35
2022-08-01T01:47:54.765Z,97.20
2022-08-01T01:48:54.797Z,96.75
2022-08-01T01:49:54.752Z,97.41
2022-08-01T01:50:54.746Z,97.35
2022-08-01T01:52:02.800Z,97.55
2022-08-01T01:52:54.734Z,97.20
2022-08-01T01:53:54.722Z,96.30
2022-08-01T01:54:54.722Z,96.80
2022-08-01T01:55:54.710Z,96.45
2022-08-01T01:56:54.708Z,97.31
2022-08-01T01:57:54.699Z,96.30
2022-08-01T01:58:54.688Z,96.65
2022-08-01T01:59:54.698Z,96.10
2022-08-01T02:00:54.674Z,96.10
2022-08-01T02:02:06.061Z,97.20
2022-08-01T02:02:55.741Z,95.80
2022-08-01T02:03:54.657Z,95.90
2022-08-01T02:04:54.669Z,95.70
2022-08-01T02:05:54.652Z,95.60
2022-08-01T02:06:54.626Z,96.25
2022-08-01T02:07:59.387Z,96.30
2022-08-01T02:08:54.622Z,95.84
2022-08-01T02:09:54.633Z,96.35
2022-08-01T02:10:54.614Z,96.65
2022-08-01T02:12:07.464Z,96.35
2022-08-01T02:12:55.589Z,96.80
2022-08-01T02:13:54.598Z,97.40
2022-08-01T02:14:54.602Z,97.40
2022-08-01T02:15:59.233Z,97.30
2022-08-01T02:16:54.598Z,97.40
2022-08-01T02:17:54.570Z,97.60
2022-08-01T02:18:54.553Z,97.40
2022-08-01T02:19:54.573Z,97.70
2022-08-01T02:20:54.542Z,97.60
2022-08-01T02:21:54.538Z,97.30
2022-08-01T02:22:54.536Z,97.50
2022-08-01T02:23:54.570Z,97.34
2022-08-01T02:24:54.517Z,97.40
2022-08-01T02:26:10.323Z,97.40
2022-08-01T02:26:55.505Z,97.50
2022-08-01T02:27:54.497Z,97.20
2022-08-01T02:28:54.497Z,97.64
2022-08-01T02:29:54.493Z,97.44
2022-08-01T02:30:54.490Z,97.75
2022-08-01T02:31:54.477Z,98.15
2022-08-01T02:32:54.474Z,98.45
2022-08-01T02:33:54.461Z,98.45
2022-08-01T02:34:54.454Z,99.35
2022-08-01T02:36:32.084Z,99.55
2022-08-01T02:36:55.443Z,99.96
2022-08-01T02:37:54.446Z,99.99
2022-08-01T02:38:54.435Z,99.99
2022-08-01T02:39:54.426Z,99.99
2022-08-01T02:40:54.450Z,99.99
2022-08-01T02:41:54.433Z,99.99
2022-08-01T02:42:54.413Z,99.99
2022-08-01T02:43:54.403Z,99.99
2022-08-01T02:44:54.402Z,99.99
2022-08-01T02:45:54.418Z,99.55
2022-08-01T02:46:54.393Z,99.99
2022-08-01T02:47:54.381Z,99.66
2022-08-01T02:48:54.445Z,99.99
2022-08-01T02:49:54.366Z,99.99
2022-08-01T02:50:54.366Z,99.99
2022-08-01T02:51:54.402Z,99.96
2022-08-01T02:52:54.350Z,99.99
2022-08-01T02:53:54.350Z,99.99
2022-08-01T02:54:54.346Z,99.99
2022-08-01T02:55:54.358Z,99.96
2022-08-01T02:56:54.326Z,99.99
2022-08-01T02:57:56.860Z,99.99
2022-08-01T02:58:55.309Z,99.99
2022-08-01T02:59:54.314Z,99.96
2022-08-01T03:00:54.314Z,99.99
2022-08-01T03:01:55.181Z,99.99
2022-08-01T03:02:54.298Z,99.99
2022-08-01T03:03:54.289Z,99.99
2022-08-01T03:04:57.025Z,99.99
2022-08-01T03:05:54.275Z,99.99
2022-08-01T03:06:54.278Z,99.99
2022-08-01T03:07:54.263Z,99.99
2022-08-01T03:08:54.254Z,99.99
2022-08-01T03:09:54.245Z,99.99
2022-08-01T03:10:54.240Z,99.99
2022-08-01T03:11:54.253Z,99.99
2022-08-01T03:12:54.210Z,99.99
2022-08-01T03:13:54.218Z,99.99
2022-08-01T03:14:54.220Z,99.99
2022-08-01T03:15:54.214Z,99.99
2022-08-01T03:16:54.198Z,99.99
2022-08-01T03:17:55.234Z,99.99
2022-08-01T03:18:54.190Z,99.99
2022-08-01T03:19:54.178Z,99.99
2022-08-01T03:20:54.178Z,99.99
2022-08-01T03:21:54.174Z,99.99
2022-08-01T03:22:54.176Z,99.99
2022-08-01T03:23:55.295Z,99.99
2022-08-01T03:24:55.162Z,99.99
2022-08-01T03:25:54.143Z,99.99
2022-08-01T03:26:54.150Z,99.99
2022-08-01T03:27:54.153Z,99.99
2022-08-01T03:28:54.122Z,99.99
2022-08-01T03:29:54.126Z,99.99
2022-08-01T03:30:54.122Z,99.99
2022-08-01T03:31:54.110Z,99.99
2022-08-01T03:32:54.106Z,99.99
2022-08-01T03:33:54.115Z,99.99
2022-08-01T03:34:54.123Z,99.99
2022-08-01T03:35:54.078Z,99.99
2022-08-01T03:36:54.082Z,99.99
2022-08-01T03:38:15.302Z,99.99
2022-08-01T03:38:56.077Z,99.99
2022-08-01T03:39:54.061Z,99.99
2022-08-01T03:40:54.050Z,99.99
2022-08-01T03:41:56.808Z,99.99
2022-08-01T03:42:55.042Z,99.99
2022-08-01T03:43:54.050Z,99.99
2022-08-01T03:44:54.017Z,99.99
2022-08-01T03:45:54.023Z,99.99
2022-08-01T03:46:53.997Z,99.99
2022-08-01T03:47:54.006Z,99.66
2022-08-01T03:48:54.060Z,99.99
2022-08-01T03:49:54.010Z,99.99
2022-08-01T03:50:54.018Z,99.99
2022-08-01T03:51:53.973Z,99.81
2022-08-01T03:52:53.975Z,99.61
2022-08-01T03:53:53.965Z,99.41
2022-08-01T03:54:53.978Z,99.01
2022-08-01T03:55:53.960Z,98.40
2022-08-01T03:56:53.946Z,98.40
2022-08-01T03:57:53.934Z,98.36
2022-08-01T03:58:53.933Z,97.90
2022-08-01T03:59:53.929Z,98.05
2022-08-01T04:00:53.973Z,98.25
2022-08-01T04:01:53.919Z,98.71
2022-08-01T04:02:54.905Z,99.31
2022-08-01T04:03:53.906Z,99.71
2022-08-01T04:04:53.902Z,99.55
2022-08-01T04:05:53.902Z,99.66
2022-08-01T04:06:53.886Z,99.31
2022-08-01T04:07:53.882Z,99.81
2022-08-01T04:08:53.889Z,98.50
2022-08-01T04:09:53.874Z,98.30
2022-08-01T04:10:53.893Z,98.10
2022-08-01T04:11:53.846Z,97.25
2022-08-01T04:12:53.854Z,96.85
2022-08-01T04:13:53.846Z,96.35
2022-08-01T04:14:53.842Z,96.80
2022-08-01T04:15:53.833Z,96.20
2022-08-01T04:16:53.833Z,95.60
2022-08-01T04:17:53.818Z,95.60
2022-08-01T04:18:53.814Z,95.40
2022-08-01T04:19:53.798Z,96.10
2022-08-01T04:20:53.809Z,95.95
2022-08-01T04:21:53.798Z,95.30
2022-08-01T04:22:53.794Z,95.20
2022-08-01T04:23:53.790Z,95.40
2022-08-01T04:24:56.875Z,95.50
2022-08-01T04:25:54.782Z,95.20
2022-08-01T04:26:53.760Z,95.30
2022-08-01T04:27:53.752Z,95.70
2022-08-01T04:28:53.761Z,96.00
2022-08-01T04:29:53.750Z,95.70
2022-08-01T04:30:55.030Z,96.10
2022-08-01T04:31:53.738Z,96.55
2022-08-01T04:32:53.731Z,97.20
2022-08-01T04:33:53.727Z,97.35
2022-08-01T04:34:53.722Z,97.35
2022-08-01T04:36:02.889Z,97.55
2022-08-01T04:36:54.694Z,96.60
2022-08-01T04:37:53.797Z,96.60
2022-08-01T04:38:53.696Z,95.90
2022-08-01T04:39:53.670Z,96.36
2022-08-01T04:40:53.686Z,95.95
2022-08-01T04:41:53.670Z,95.95
2022-08-01T04:42:53.649Z,95.45
2022-08-01T04:43:53.653Z,95.65
2022-08-01T04:44:53.653Z,95.55
2022-08-01T04:45:53.657Z,94.95
2022-08-01T04:46:53.638Z,95.25
2022-08-01T04:47:53.619Z,95.15
2022-08-01T04:48:53.659Z,95.51
2022-08-01T04:49:53.618Z,95.21
2022-08-01T04:50:53.610Z,94.75
2022-08-01T04:51:53.611Z,94.75
2022-08-01T04:52:53.595Z,94.85
2022-08-01T04:53:53.581Z,95.65
2022-08-01T04:54:53.573Z,95.55
2022-08-01T04:55:53.574Z,95.36
2022-08-01T04:56:53.570Z,95.75
2022-08-01T04:57:53.565Z,95.55
2022-08-01T04:58:53.549Z,95.15
2022-08-01T04:59:53.540Z,95.75
2022-08-01T05:00:53.551Z,95.25
2022-08-01T05:01:53.546Z,94.85
2022-08-01T05:02:53.532Z,95.45
2022-08-01T05:03:53.526Z,94.85
2022-08-01T05:04:53.517Z,94.25
2022-08-01T05:05:53.509Z,94.45
2022-08-01T05:06:53.517Z,93.95
2022-08-01T05:07:53.501Z,93.50
2022-08-01T05:08:53.494Z,94.00
2022-08-01T05:09:53.485Z,93.80
2022-08-01T05:10:53.478Z,92.80
2022-08-01T05:11:53.481Z,93.80
2022-08-01T05:12:53.469Z,93.60
2022-08-01T05:13:53.449Z,92.76
2022-08-01T05:14:53.449Z,92.55
2022-08-01T05:15:53.470Z,92.55
2022-08-01T05:16:53.438Z,92.15
2022-08-01T05:17:53.425Z,92.01
2022-08-01T05:18:53.421Z,92.15
2022-08-01T05:19:53.413Z,91.71
2022-08-01T05:20:53.417Z,92.46
2022-08-01T05:21:53.405Z,91.75
2022-08-01T05:22:54.397Z,91.71
2022-08-01T05:23:53.385Z,90.70
2022-08-01T05:24:53.384Z,90.70
2022-08-01T05:25:57.601Z,90.50
2022-08-01T05:26:54.365Z,91.05
2022-08-01T05:27:53.369Z,90.75
2022-08-01T05:28:53.360Z,90.85
2022-08-01T05:29:53.353Z,90.85
2022-08-01T05:30:53.341Z,91.05
2022-08-01T05:31:53.337Z,90.75
2022-08-01T05:32:53.348Z,90.70
2022-08-01T05:33:53.324Z,90.70
2022-08-01T05:34:53.313Z,91.05
2022-08-01T05:35:53.308Z,91.05
2022-08-01T05:36:57.864Z,90.95
2022-08-01T05:37:54.317Z,91.05
2022-08-01T05:38:53.289Z,91.20
2022-08-01T05:39:53.280Z,91.01
2022-08-01T05:40:53.278Z,90.31
2022-08-01T05:41:53.269Z,90.81
2022-08-01T05:42:53.270Z,90.91
2022-08-01T05:43:53.268Z,91.01
2022-08-01T05:44:53.246Z,91.31
2022-08-01T05:45:53.265Z,91.51
2022-08-01T05:46:53.253Z,91.01
2022-08-01T05:47:53.222Z,90.61
2022-08-01T05:48:53.295Z,91.01
2022-08-01T05:49:53.232Z,90.61
2022-08-01T05:50:58.179Z,90.70
2022-08-01T05:51:55.204Z,91.05
2022-08-01T05:52:53.200Z,91.15
2022-08-01T05:53:53.221Z,90.91
2022-08-01T05:54:53.216Z,90.20
2022-08-01T05:55:53.170Z,90.75
2022-08-01T05:56:53.168Z,90.81
2022-08-01T05:57:53.161Z,90.50
2022-08-01T05:58:53.152Z,90.85
2022-08-01T05:59:53.160Z,90.70
2022-08-01T06:00:53.143Z,90.75
2022-08-01T06:01:53.194Z,91.11
2022-08-01T06:02:53.116Z,91.01
2022-08-01T06:03:54.124Z,90.61
2022-08-01T06:04:53.112Z,90.81
2022-08-01T06:05:53.116Z,90.86
2022-08-01T06:06:53.101Z,90.61
2022-08-01T06:07:53.097Z,90.66
2022-08-01T06:08:53.076Z,90.96
2022-08-01T06:09:53.084Z,90.77
2022-08-01T06:10:53.088Z,90.16
2022-08-01T06:11:53.064Z,90.06
2022-08-01T06:12:53.064Z,89.96
2022-08-01T06:13:53.056Z,89.76
2022-08-01T06:14:53.054Z,89.36
2022-08-01T06:15:53.049Z,88.92
2022-08-01T06:16:53.038Z,88.92
2022-08-01T06:17:54.029Z,89.16
2022-08-01T06:18:56.770Z,89.22
2022-08-01T06:19:54.012Z,89.62
2022-08-01T06:20:53.025Z,89.32
2022-08-01T06:21:53.000Z,89.32
2022-08-01T06:22:53.012Z,89.22
2022-08-01T06:23:52.979Z,89.32
2022-08-01T06:24:52.973Z,89.78
2022-08-01T06:25:53.000Z,88.78
2022-08-01T06:26:52.971Z,86.98
2022-08-01T06:27:52.948Z,88.23
2022-08-01T06:28:52.944Z,87.27
2022-08-01T06:29:54.334Z,86.57
2022-08-01T06:30:52.945Z,86.73
2022-08-01T06:31:52.932Z,86.37
2022-08-01T06:32:52.919Z,85.73
2022-08-01T06:33:52.903Z,86.73
2022-08-01T06:34:52.908Z,86.43
2022-08-01T06:35:52.901Z,87.13
2022-08-01T06:36:52.899Z,87.23
2022-08-01T06:37:52.880Z,86.33
2022-08-01T06:38:52.884Z,86.63
2022-08-01T06:39:52.866Z,84.83
2022-08-01T06:40:52.863Z,85.33
2022-08-01T06:41:52.876Z,84.97
2022-08-01T06:42:52.848Z,85.68
2022-08-01T06:43:52.840Z,85.87
2022-08-01T06:44:52.836Z,84.11
2022-08-01T06:45:52.827Z,85.51
2022-08-01T06:46:52.835Z,85.01
2022-08-01T06:47:52.819Z,84.25
2022-08-01T06:48:52.836Z,85.05
2022-08-01T06:49:52.795Z,86.41
2022-08-01T06:50:52.794Z,86.41
2022-08-01T06:51:52.796Z,87.12
2022-08-01T06:52:52.799Z,86.87
2022-08-01T06:53:52.776Z,85.03
2022-08-01T06:54:52.759Z,85.13
2022-08-01T06:55:53.769Z,86.09
2022-08-01T06:56:52.767Z,84.99
2022-08-01T06:57:52.760Z,84.15
2022-08-01T06:58:52.743Z,83.75
2022-08-01T06:59:54.622Z,84.65
2022-08-01T07:00:57.461Z,83.15
2022-08-01T07:01:53.743Z,83.65
2022-08-01T07:02:52.715Z,81.95
2022-08-01T07:03:54.356Z,82.25
2022-08-01T07:04:52.699Z,82.35
2022-08-01T07:05:52.692Z,83.45
2022-08-01T07:06:52.700Z,84.25
2022-08-01T07:07:52.689Z,84.75
2022-08-01T07:08:52.675Z,83.61
2022-08-01T07:09:52.667Z,84.41
2022-08-01T07:10:52.659Z,84.61
2022-08-01T07:11:52.668Z,83.91
2022-08-01T07:12:52.670Z,83.81
2022-08-01T07:13:52.640Z,83.87
2022-08-01T07:14:52.635Z,82.77
2022-08-01T07:15:52.638Z,82.64
2022-08-01T07:16:52.630Z,82.67
2022-08-01T07:17:52.639Z,82.97
2022-08-01T07:18:52.607Z,81.84
2022-08-01T07:19:52.602Z,80.68
2022-08-01T07:20:52.895Z,81.07
2022-08-01T07:21:52.590Z,80.98
2022-08-01T07:22:52.599Z,81.87
2022-08-01T07:23:52.575Z,80.08
2022-08-01T07:24:54.439Z,80.58
2022-08-01T07:25:52.966Z,79.48
2022-08-01T07:26:54.568Z,80.18
2022-08-01T07:27:52.546Z,80.83
2022-08-01T07:28:52.555Z,81.13
2022-08-01T07:29:52.534Z,79.84
2022-08-01T07:30:52.531Z,78.84
2022-08-01T07:31:52.527Z,78.44
2022-08-01T07:32:52.534Z,77.34
2022-08-01T07:33:52.520Z,77.44
2022-08-01T07:34:52.511Z,78.14
2022-08-01T07:35:52.498Z,77.44
2022-08-01T07:36:52.504Z,77.68
2022-08-01T07:37:52.507Z,79.08
2022-08-01T07:38:52.483Z,78.28
2022-08-01T07:39:52.464Z,80.02
2022-08-01T07:40:52.462Z,79.72
2022-08-01T07:42:06.042Z,80.21
2022-08-01T07:42:53.490Z,80.21
2022-08-01T07:43:57.237Z,79.41
2022-08-01T07:44:54.442Z,78.72
2022-08-01T07:45:52.432Z,79.91
2022-08-01T07:46:52.487Z,79.38
2022-08-01T07:47:52.417Z,78.68
2022-08-01T07:48:52.491Z,78.44
2022-08-01T07:49:52.414Z,78.34
2022-08-01T07:50:52.391Z,76.54
2022-08-01T07:52:03.235Z,78.14
2022-08-01T07:52:53.394Z,77.34
2022-08-01T07:53:52.411Z,77.04
2022-08-01T07:54:52.462Z,76.65
2022-08-01T07:55:52.367Z,77.74
2022-08-01T07:56:52.370Z,79.14
2022-08-01T07:57:52.354Z,77.40
2022-08-01T07:58:52.368Z,76.41
2022-08-01T07:59:52.342Z,77.11
2022-08-01T08:00:52.344Z,76.91
2022-08-01T08:01:52.364Z,76.75
2022-08-01T08:02:52.330Z,78.14
2022-08-01T08:03:52.334Z,78.84
2022-08-01T08:04:52.313Z,78.28
2022-08-01T08:05:59.564Z,78.54
2022-08-01T08:06:53.287Z,78.14
2022-08-01T08:07:52.286Z,76.91
2022-08-01T08:08:52.295Z,77.11
2022-08-01T08:09:52.262Z,77.57
2022-08-01T08:10:52.259Z,76.47
2022-08-01T08:11:52.267Z,75.97
2022-08-01T08:12:52.254Z,75.54
2022-08-01T08:13:52.241Z,74.94
2022-08-01T08:14:52.250Z,75.84
2022-08-01T08:15:52.231Z,76.20
2022-08-01T08:16:52.227Z,76.06
2022-08-01T08:17:55.229Z,75.23
2022-08-01T08:18:52.217Z,74.93
2022-08-01T08:19:52.216Z,74.63
2022-08-01T08:20:52.218Z,73.44
2022-08-01T08:21:52.187Z,74.73
2022-08-01T08:22:52.190Z,72.64
2022-08-01T08:23:52.183Z,73.34
2022-08-01T08:24:52.167Z,74.33
2022-08-01T08:25:52.179Z,73.11
2022-08-01T08:26:52.411Z,73.54
2022-08-01T08:27:52.144Z,72.41
2022-08-01T08:28:52.149Z,70.78
2022-08-01T08:29:52.136Z,70.85
2022-08-01T08:30:52.152Z,71.01
2022-08-01T08:31:53.131Z,66.94
2022-08-01T08:32:52.111Z,67.31
2022-08-01T08:33:52.111Z,69.69
2022-08-01T08:34:52.115Z,66.49
2022-08-01T08:35:54.110Z,64.57
2022-08-01T08:36:52.389Z,66.22
2022-08-01T08:37:52.368Z,66.09
2022-08-01T08:38:52.084Z,67.77
2022-08-01T08:39:52.072Z,65.04
2022-08-01T08:40:52.083Z,61.78
2022-08-01T08:41:52.047Z,62.27
2022-08-01T08:42:52.056Z,63.85
2022-08-01T08:43:52.049Z,62.17
2022-08-01T08:44:52.030Z,62.77
2022-08-01T08:45:59.858Z,64.12
2022-08-01T08:46:53.045Z,62.44
2022-08-01T08:47:52.021Z,62.14
2022-08-01T08:48:52.089Z,60.19
2022-08-01T08:49:52.000Z,61.98
2022-08-01T08:50:51.989Z,61.80
2022-08-01T08:51:52.001Z,61.31
2022-08-01T08:52:51.989Z,63.52
2022-08-01T08:53:51.969Z,62.53
2022-08-01T08:54:51.973Z,63.32
2022-08-01T08:55:56.349Z,63.12
2022-08-01T08:56:51.973Z,63.39
2022-08-01T08:57:51.945Z,61.29
2022-08-01T08:58:51.940Z,61.38
2022-08-01T08:59:51.926Z,59.97
2022-08-01T09:00:51.928Z,60.66
2022-08-01T09:01:51.942Z,60.86
2022-08-01T09:02:51.960Z,60.60
2022-08-01T09:03:51.921Z,57.74
2022-08-01T09:04:51.912Z,57.60
2022-08-01T09:05:51.897Z,58.80
2022-08-01T09:06:51.913Z,56.65
2022-08-01T09:07:51.906Z,53.26
2022-08-01T09:08:51.891Z,53.20
2022-08-01T09:09:51.882Z,49.46
2022-08-01T09:10:51.869Z,50.42
2022-08-01T09:11:57.038Z,50.27
2022-08-01T09:12:52.865Z,49.71
2022-08-01T09:13:51.861Z,47.34
2022-08-01T09:14:51.840Z,47.14
2022-08-01T09:15:51.850Z,46.80
2022-08-01T09:16:51.831Z,47.95
2022-08-01T09:17:51.837Z,46.85
2022-08-01T09:18:53.403Z,46.63
2022-08-01T09:19:51.806Z,44.46
2022-08-01T09:20:51.813Z,46.51
2022-08-01T09:21:51.805Z,44.87
2022-08-01T09:22:51.797Z,46.14
2022-08-01T09:23:53.469Z,45.26
2022-08-01T09:24:51.777Z,45.29
2022-08-01T09:25:51.777Z,46.26
2022-08-01T09:26:51.769Z,44.70
2022-08-01T09:27:51.772Z,45.02
2022-08-01T09:28:51.756Z,44.92
2022-08-01T09:30:01.361Z,46.75
2022-08-01T09:30:52.749Z,46.75
2022-08-01T09:31:51.728Z,45.48
2022-08-01T09:32:51.741Z,46.49
2022-08-01T09:33:51.733Z,44.52
2022-08-01T09:34:51.726Z,44.24
2022-08-01T09:35:51.713Z,43.78
2022-08-01T09:36:51.708Z,43.73
2022-08-01T09:37:51.713Z,44.14
2022-08-01T09:38:51.705Z,44.57
2022-08-01T09:39:51.689Z,45.30
2022-08-01T09:40:51.686Z,46.52
2022-08-01T09:41:51.674Z,47.24
2022-08-01T09:42:51.680Z,46.95
2022-08-01T09:43:51.678Z,43.71
2022-08-01T09:44:54.798Z,43.84
2022-08-01T09:45:53.290Z,41.73
2022-08-01T09:46:51.640Z,40.99
2022-08-01T09:47:51.637Z,40.93
2022-08-01T09:48:51.674Z,42.90
2022-08-01T09:49:53.090Z,40.41
2022-08-01T09:50:51.613Z,39.01
2022-08-01T09:52:00.090Z,38.46
2022-08-01T09:52:52.615Z,37.05
2022-08-01T09:53:53.417Z,37.24
2022-08-01T09:54:51.602Z,35.25
2022-08-01T09:55:51.588Z,36.46
2022-08-01T09:56:51.589Z,35.45
2022-08-01T09:57:51.581Z,35.26
2022-08-01T09:58:57.797Z,33.20
2022-08-01T10:00:01.717Z,35.96
2022-08-01T10:00:53.638Z,36.08
2022-08-01T10:01:51.656Z,35.88
2022-08-01T10:02:51.552Z,35.32
2022-08-01T10:03:51.567Z,37.05
2022-08-01T10:04:51.556Z,36.66
2022-08-01T10:05:51.540Z,38.58
2022-08-01T10:06:51.553Z,38.12
2022-08-01T10:07:51.533Z,37.08
2022-08-01T10:08:51.519Z,37.32
2022-08-01T10:09:51.537Z,39.76
2022-08-01T10:10:51.513Z,40.41
2022-08-01T10:11:51.508Z,42.32
2022-08-01T10:12:51.508Z,42.64
2022-08-01T10:13:51.503Z,42.44
2022-08-01T10:14:51.509Z,41.48
2022-08-01T10:15:51.495Z,39.76
2022-08-01T10:16:53.761Z,38.15
2022-08-01T10:17:52.515Z,38.98
2022-08-01T10:18:52.476Z,39.12
2022-08-01T10:19:52.265Z,38.19
2022-08-01T10:20:51.472Z,35.05
2022-08-01T10:21:58.506Z,35.02
2022-08-01T10:22:52.459Z,34.20
2022-08-01T10:23:51.446Z,32.06
2022-08-01T10:24:51.457Z,32.31
2022-08-01T10:25:51.443Z,34.32
2022-08-01T10:26:51.435Z,32.75
2022-08-01T10:27:51.421Z,32.97
2022-08-01T10:28:51.416Z,32.01
2022-08-01T10:30:05.961Z,33.25
2022-08-01T10:30:53.323Z,31.59
2022-08-01T10:31:51.401Z,30.43
2022-08-01T10:32:51.425Z,31.37
2022-08-01T10:33:53.464Z,31.81
2022-08-01T10:34:52.398Z,32.26
2022-08-01T10:35:51.386Z,31.67
2022-08-01T10:36:51.378Z,32.43
2022-08-01T10:37:52.111Z,32.33
2022-08-01T10:38:51.369Z,31.67
2022-08-01T10:40:03.711Z,30.73
2022-08-01T10:40:52.389Z,32.10
2022-08-01T10:41:51.351Z,32.78
2022-08-01T10:42:51.360Z,32.94
2022-08-01T10:43:51.332Z,35.53
2022-08-01T10:44:51.343Z,36.52
2022-08-01T10:45:51.335Z,36.46
2022-08-01T10:46:51.324Z,35.53
2022-08-01T10:47:51.459Z,36.93
2022-08-01T10:48:52.199Z,35.57
2022-08-01T10:49:51.304Z,35.34
2022-08-01T10:50:51.304Z,36.74
2022-08-01T10:51:54.473Z,36.98
2022-08-01T10:52:51.300Z,36.52
2022-08-01T10:53:54.206Z,35.38
2022-08-01T10:54:52.372Z,31.84
2022-08-01T10:55:51.300Z,32.60
2022-08-01T10:56:51.383Z,31.80
2022-08-01T10:57:53.046Z,31.51
2022-08-01T10:58:51.260Z,30.17
2022-08-01T10:59:51.301Z,31.13
2022-08-01T11:00:53.464Z,30.98
2022-08-01T11:01:51.276Z,32.46
2022-08-01T11:02:51.245Z,33.89
2022-08-01T11:04:01.618Z,32.51
2022-08-01T11:04:53.231Z,32.38
2022-08-01T11:05:51.222Z,32.17
2022-08-01T11:06:51.249Z,32.20
2022-08-01T11:07:51.216Z,32.52
2022-08-01T11:08:51.207Z,33.34
2022-08-01T11:09:52.095Z,34.23
2022-08-01T11:10:52.199Z,34.67
2022-08-01T11:11:51.196Z,35.66
2022-08-01T11:12:51.192Z,37.54
2022-08-01T11:13:51.177Z,38.05
2022-08-01T11:14:55.982Z,39.76
2022-08-01T11:15:53.169Z,41.28
2022-08-01T11:16:51.159Z,42.58
2022-08-01T11:17:54.818Z,41.54
2022-08-01T11:18:51.154Z,42.08
2022-08-01T11:19:51.143Z,39.59
2022-08-01T11:20:51.141Z,39.43
2022-08-01T11:21:59.850Z,37.49
2022-08-01T11:22:52.167Z,37.86
2022-08-01T11:23:51.123Z,38.77
2022-08-01T11:24:51.192Z,38.11
2022-08-01T11:26:03.187Z,38.85
2022-08-01T11:26:52.111Z,40.06
2022-08-01T11:27:51.112Z,41.75
2022-08-01T11:29:17.821Z,41.48
2022-08-01T11:29:53.096Z,41.67
2022-08-01T11:30:51.096Z,41.66
2022-08-01T11:31:51.129Z,41.61
2022-08-01T11:33:11.648Z,40.78
2022-08-01T11:33:53.132Z,39.34
2022-08-01T11:34:51.071Z,39.80
2022-08-01T11:35:51.063Z,38.40
2022-08-01T11:36:59.705Z,37.49
2022-08-01T11:37:53.062Z,36.20
2022-08-01T11:38:51.064Z,35.41
2022-08-01T11:39:51.052Z,35.29
2022-08-01T11:40:51.055Z,35.36
2022-08-01T11:41:51.033Z,34.89
2022-08-01T11:42:51.023Z,34.73
2022-08-01T11:43:51.026Z,34.45
2022-08-01T11:44:51.017Z,35.25
2022-08-01T11:45:51.058Z,35.44
2022-08-01T11:46:51.088Z,35.49
2022-08-01T11:47:51.001Z,34.81
2022-08-01T11:48:51.074Z,35.53
2022-08-01T11:49:51.012Z,36.63
2022-08-01T11:50:51.002Z,36.38
2022-08-01T11:51:50.971Z,36.69
2022-08-01T11:52:50.982Z,37.76
2022-08-01T11:53:50.977Z,37.58
2022-08-01T11:54:50.979Z,37.97
2022-08-01T11:55:51.201Z,38.40
2022-08-01T11:56:50.972Z,37.62
2022-08-01T11:57:50.951Z,39.61
2022-08-01T11:58:50.956Z,39.82
2022-08-01T12:00:03.863Z,40.80
2022-08-01T12:00:51.947Z,40.31
2022-08-01T12:01:51.129Z,40.50
2022-08-01T12:02:50.985Z,40.72
2022-08-01T12:03:50.919Z,41.28
2022-08-01T12:04:50.923Z,41.35
2022-08-01T12:05:50.950Z,38.59
2022-08-01T12:06:51.027Z,40.55
2022-08-01T12:07:50.901Z,40.81
2022-08-01T12:08:50.903Z,39.22
2022-08-01T12:09:50.879Z,37.06
2022-08-01T12:10:50.915Z,38.31
2022-08-01T12:11:50.871Z,36.73
2022-08-01T12:12:50.863Z,36.52
2022-08-01T12:13:50.859Z,37.47
2022-08-01T12:14:50.870Z,34.75
2022-08-01T12:15:56.223Z,36.00
2022-08-01T12:16:51.849Z,34.91
2022-08-01T12:17:58.563Z,33.46
2022-08-01T12:18:51.846Z,34.97
2022-08-01T12:19:50.832Z,35.47
2022-08-01T12:20:57.936Z,35.80
2022-08-01T12:21:56.058Z,36.30
2022-08-01T12:22:51.815Z,37.10
2022-08-01T12:23:50.811Z,37.02
2022-08-01T12:24:50.794Z,38.22
2022-08-01T12:25:50.807Z,37.85
2022-08-01T12:26:50.824Z,38.04
2022-08-01T12:27:55.746Z,38.65
2022-08-01T12:28:52.778Z,40.01
2022-08-01T12:29:50.771Z,40.16
2022-08-01T12:30:50.775Z,40.66
2022-08-01T12:31:50.755Z,40.68
2022-08-01T12:32:50.759Z,41.56
2022-08-01T12:33:50.744Z,41.09
2022-08-01T12:34:50.759Z,41.99
2022-08-01T12:35:50.748Z,43.76
2022-08-01T12:36:50.735Z,42.19
2022-08-01T12:37:50.732Z,42.68
2022-08-01T12:38:50.723Z,42.17
2022-08-01T12:39:50.728Z,41.78
2022-08-01T12:40:53.265Z,41.78
2022-08-01T12:41:50.716Z,43.15
2022-08-01T12:42:50.698Z,43.85
2022-08-01T12:43:50.691Z,44.46
2022-08-01T12:44:50.691Z,45.88
2022-08-01T12:45:56.841Z,46.81
2022-08-01T12:46:50.683Z,47.03
2022-08-01T12:47:50.686Z,47.54
2022-08-01T12:48:50.727Z,46.78
2022-08-01T12:49:50.667Z,47.39
2022-08-01T12:50:50.655Z,49.30
2022-08-01T12:51:57.508Z,49.30
2022-08-01T12:52:51.655Z,49.28